sensor_id;sensor_type;location;lat;lon;timestamp;P1;durP1;ratioP1;P2;durP2;ratioP2
45686;SDS011;31399;51.176;7.776;2023-06-10T00:00:47;13.18;;;6.18;;
45686;SDS011;31399;51.176;7.776;2023-06-10T00:03:13;12.82;;;7.38;;
45686;SDS011;31399;51.176;7.776;2023-06-10T00:05:41;10.80;;;6.55;;
45686;SDS011;31399;51.176;7.776;2023-06-10T00:08:08;7.57;;;6.40;;
45686;SDS011;31399;51.176;7.776;2023-06-10T00:10:35;9.02;;;6.97;;
45686;SDS011;31399;51.176;7.776;2023-06-10T00:13:03;8.95;;;7.00;;
45686;SDS011;31399;51.176;7.776;2023-06-10T00:15:31;9.88;;;6.97;;
45686;SDS011;31399;51.176;7.776;2023-06-10T00:17:57;11.02;;;6.82;;
45686;SDS011;31399;51.176;7.776;2023-06-10T00:20:24;7.20;;;6.45;;
45686;SDS011;31399;51.176;7.776;2023-06-10T00:22:51;8.40;;;6.70;;
45686;SDS011;31399;51.176;7.776;2023-06-10T00:25:18;12.65;;;6.90;;
45686;SDS011;31399;51.176;7.776;2023-06-10T00:27:45;9.02;;;6.90;;
45686;SDS011;31399;51.176;7.776;2023-06-10T00:30:12;8.48;;;6.82;;
45686;SDS011;31399;51.176;7.776;2023-06-10T00:32:39;8.40;;;6.95;;
45686;SDS011;31399;51.176;7.776;2023-06-10T00:35:06;8.23;;;6.35;;
45686;SDS011;31399;51.176;7.776;2023-06-10T00:37:34;9.52;;;7.28;;
45686;SDS011;31399;51.176;7.776;2023-06-10T00:40:04;11.85;;;7.18;;
45686;SDS011;31399;51.176;7.776;2023-06-10T00:42:31;11.95;;;7.20;;
45686;SDS011;31399;51.176;7.776;2023-06-10T00:44:58;9.60;;;7.28;;
45686;SDS011;31399;51.176;7.776;2023-06-10T00:47:25;9.20;;;7.22;;
45686;SDS011;31399;51.176;7.776;2023-06-10T00:49:52;9.55;;;6.95;;
45686;SDS011;31399;51.176;7.776;2023-06-10T00:52:18;10.80;;;7.78;;
45686;SDS011;31399;51.176;7.776;2023-06-10T00:54:48;9.88;;;7.20;;
45686;SDS011;31399;51.176;7.776;2023-06-10T00:57:15;10.90;;;7.50;;
45686;SDS011;31399;51.176;7.776;2023-06-10T00:59:42;12.13;;;7.85;;
45686;SDS011;31399;51.176;7.776;2023-06-10T01:02:13;9.98;;;8.27;;
45686;SDS011;31399;51.176;7.776;2023-06-10T01:04:40;11.80;;;8.05;;
45686;SDS011;31399;51.176;7.776;2023-06-10T01:09:55;11.88;;;7.80;;
45686;SDS011;31399;51.176;7.776;2023-06-10T01:13:05;13.65;;;8.55;;
45686;SDS011;31399;51.176;7.776;2023-06-10T01:15:35;11.77;;;8.25;;
45686;SDS011;31399;51.176;7.776;2023-06-10T01:18:02;11.82;;;7.68;;
45686;SDS011;31399;51.176;7.776;2023-06-10T01:20:36;11.43;;;7.80;;
45686;SDS011;31399;51.176;7.776;2023-06-10T01:23:06;11.20;;;7.78;;
45686;SDS011;31399;51.176;7.776;2023-06-10T01:25:35;11.13;;;6.97;;
45686;SDS011;31399;51.176;7.776;2023-06-10T01:33:35;11.57;;;7.60;;
45686;SDS011;31399;51.176;7.776;2023-06-10T01:36:03;9.65;;;7.20;;
45686;SDS011;31399;51.176;7.776;2023-06-10T01:38:30;10.73;;;8.13;;
45686;SDS011;31399;51.176;7.776;2023-06-10T01:40:59;10.88;;;7.60;;
45686;SDS011;31399;51.176;7.776;2023-06-10T01:43:27;9.63;;;7.63;;
45686;SDS011;31399;51.176;7.776;2023-06-10T01:45:53;9.48;;;7.65;;
45686;SDS011;31399;51.176;7.776;2023-06-10T01:48:20;8.57;;;7.30;;
45686;SDS011;31399;51.176;7.776;2023-06-10T01:50:47;8.70;;;7.40;;
45686;SDS011;31399;51.176;7.776;2023-06-10T01:53:13;10.63;;;7.00;;
45686;SDS011;31399;51.176;7.776;2023-06-10T01:55:40;12.27;;;7.25;;
45686;SDS011;31399;51.176;7.776;2023-06-10T01:58:06;13.85;;;6.97;;
45686;SDS011;31399;51.176;7.776;2023-06-10T02:00:33;9.63;;;7.18;;
45686;SDS011;31399;51.176;7.776;2023-06-10T02:03:00;10.38;;;7.30;;
45686;SDS011;31399;51.176;7.776;2023-06-10T02:05:26;10.75;;;7.85;;
45686;SDS011;31399;51.176;7.776;2023-06-10T02:07:53;11.38;;;7.30;;
45686;SDS011;31399;51.176;7.776;2023-06-10T02:10:19;9.63;;;7.68;;
45686;SDS011;31399;51.176;7.776;2023-06-10T02:12:46;9.32;;;7.82;;
45686;SDS011;31399;51.176;7.776;2023-06-10T02:15:13;10.88;;;7.72;;
45686;SDS011;31399;51.176;7.776;2023-06-10T02:17:39;11.13;;;7.45;;
45686;SDS011;31399;51.176;7.776;2023-06-10T02:20:06;9.85;;;6.80;;
45686;SDS011;31399;51.176;7.776;2023-06-10T02:22:37;13.23;;;7.63;;
45686;SDS011;31399;51.176;7.776;2023-06-10T02:25:04;11.52;;;7.38;;
45686;SDS011;31399;51.176;7.776;2023-06-10T02:27:32;11.10;;;7.45;;
45686;SDS011;31399;51.176;7.776;2023-06-10T02:29:58;11.57;;;7.65;;
45686;SDS011;31399;51.176;7.776;2023-06-10T02:32:25;10.40;;;8.25;;
45686;SDS011;31399;51.176;7.776;2023-06-10T02:34:52;9.30;;;6.93;;
45686;SDS011;31399;51.176;7.776;2023-06-10T02:37:18;8.45;;;7.05;;
45686;SDS011;31399;51.176;7.776;2023-06-10T02:39:45;9.20;;;7.22;;
45686;SDS011;31399;51.176;7.776;2023-06-10T02:42:12;13.07;;;7.65;;
45686;SDS011;31399;51.176;7.776;2023-06-10T02:44:38;8.77;;;6.72;;
45686;SDS011;31399;51.176;7.776;2023-06-10T02:47:05;12.60;;;7.30;;
45686;SDS011;31399;51.176;7.776;2023-06-10T02:49:32;9.75;;;7.15;;
45686;SDS011;31399;51.176;7.776;2023-06-10T02:51:59;11.43;;;7.75;;
45686;SDS011;31399;51.176;7.776;2023-06-10T02:54:26;7.63;;;6.78;;
45686;SDS011;31399;51.176;7.776;2023-06-10T02:56:52;12.07;;;6.38;;
45686;SDS011;31399;51.176;7.776;2023-06-10T02:59:19;11.63;;;7.35;;
45686;SDS011;31399;51.176;7.776;2023-06-10T03:01:45;8.57;;;6.35;;
45686;SDS011;31399;51.176;7.776;2023-06-10T03:04:12;11.15;;;7.10;;
45686;SDS011;31399;51.176;7.776;2023-06-10T03:06:41;9.85;;;6.47;;
45686;SDS011;31399;51.176;7.776;2023-06-10T03:09:07;8.38;;;6.78;;
45686;SDS011;31399;51.176;7.776;2023-06-10T03:11:34;10.30;;;6.32;;
45686;SDS011;31399;51.176;7.776;2023-06-10T03:14:01;10.88;;;6.70;;
45686;SDS011;31399;51.176;7.776;2023-06-10T03:16:28;10.20;;;7.03;;
45686;SDS011;31399;51.176;7.776;2023-06-10T03:18:56;10.05;;;6.53;;
45686;SDS011;31399;51.176;7.776;2023-06-10T03:21:23;8.93;;;6.32;;
45686;SDS011;31399;51.176;7.776;2023-06-10T03:24:02;9.25;;;6.45;;
45686;SDS011;31399;51.176;7.776;2023-06-10T03:26:29;10.20;;;6.35;;
45686;SDS011;31399;51.176;7.776;2023-06-10T03:28:56;8.27;;;5.90;;
45686;SDS011;31399;51.176;7.776;2023-06-10T03:31:22;7.57;;;5.82;;
45686;SDS011;31399;51.176;7.776;2023-06-10T03:33:51;8.88;;;6.63;;
45686;SDS011;31399;51.176;7.776;2023-06-10T03:36:17;9.02;;;5.97;;
45686;SDS011;31399;51.176;7.776;2023-06-10T03:38:44;9.63;;;6.78;;
45686;SDS011;31399;51.176;7.776;2023-06-10T03:41:10;8.50;;;5.90;;
45686;SDS011;31399;51.176;7.776;2023-06-10T03:43:37;8.02;;;5.63;;
45686;SDS011;31399;51.176;7.776;2023-06-10T03:46:06;9.80;;;6.25;;
45686;SDS011;31399;51.176;7.776;2023-06-10T03:48:33;8.43;;;6.13;;
45686;SDS011;31399;51.176;7.776;2023-06-10T03:51:00;7.13;;;5.43;;
45686;SDS011;31399;51.176;7.776;2023-06-10T03:53:27;8.73;;;6.28;;
45686;SDS011;31399;51.176;7.776;2023-06-10T03:55:53;8.40;;;5.20;;
45686;SDS011;31399;51.176;7.776;2023-06-10T03:58:20;6.97;;;5.47;;
45686;SDS011;31399;51.176;7.776;2023-06-10T04:00:47;6.97;;;5.15;;
45686;SDS011;31399;51.176;7.776;2023-06-10T04:03:15;8.80;;;5.30;;
45686;SDS011;31399;51.176;7.776;2023-06-10T04:05:42;8.30;;;5.57;;
45686;SDS011;31399;51.176;7.776;2023-06-10T04:08:09;7.93;;;5.43;;
45686;SDS011;31399;51.176;7.776;2023-06-10T04:10:36;8.38;;;5.15;;
45686;SDS011;31399;51.176;7.776;2023-06-10T04:13:02;7.13;;;5.03;;
45686;SDS011;31399;51.176;7.776;2023-06-10T04:15:30;7.68;;;5.03;;
45686;SDS011;31399;51.176;7.776;2023-06-10T04:17:59;11.10;;;5.95;;
45686;SDS011;31399;51.176;7.776;2023-06-10T04:20:28;6.30;;;4.90;;
45686;SDS011;31399;51.176;7.776;2023-06-10T04:22:54;7.20;;;5.22;;
45686;SDS011;31399;51.176;7.776;2023-06-10T04:25:21;7.90;;;5.05;;
45686;SDS011;31399;51.176;7.776;2023-06-10T04:27:48;7.75;;;5.20;;
45686;SDS011;31399;51.176;7.776;2023-06-10T04:30:14;6.00;;;5.15;;
45686;SDS011;31399;51.176;7.776;2023-06-10T04:32:41;9.40;;;5.15;;
45686;SDS011;31399;51.176;7.776;2023-06-10T04:35:10;6.30;;;4.60;;
45686;SDS011;31399;51.176;7.776;2023-06-10T04:37:38;7.95;;;4.78;;
45686;SDS011;31399;51.176;7.776;2023-06-10T04:40:05;8.13;;;5.18;;
45686;SDS011;31399;51.176;7.776;2023-06-10T04:42:34;8.40;;;4.68;;
45686;SDS011;31399;51.176;7.776;2023-06-10T04:45:01;5.88;;;4.85;;
45686;SDS011;31399;51.176;7.776;2023-06-10T04:47:29;6.53;;;5.15;;
45686;SDS011;31399;51.176;7.776;2023-06-10T04:50:00;6.10;;;4.75;;
45686;SDS011;31399;51.176;7.776;2023-06-10T04:52:27;7.63;;;4.93;;
45686;SDS011;31399;51.176;7.776;2023-06-10T04:54:53;6.72;;;4.70;;
45686;SDS011;31399;51.176;7.776;2023-06-10T04:57:20;8.32;;;4.95;;
45686;SDS011;31399;51.176;7.776;2023-06-10T04:59:47;6.88;;;4.88;;
45686;SDS011;31399;51.176;7.776;2023-06-10T05:02:14;6.85;;;4.55;;
45686;SDS011;31399;51.176;7.776;2023-06-10T05:04:41;8.13;;;4.60;;
45686;SDS011;31399;51.176;7.776;2023-06-10T05:07:08;6.43;;;4.57;;
45686;SDS011;31399;51.176;7.776;2023-06-10T05:09:34;7.47;;;4.32;;
45686;SDS011;31399;51.176;7.776;2023-06-10T05:12:01;5.55;;;4.50;;
45686;SDS011;31399;51.176;7.776;2023-06-10T05:14:28;10.13;;;4.53;;
45686;SDS011;31399;51.176;7.776;2023-06-10T05:16:55;7.80;;;3.95;;
45686;SDS011;31399;51.176;7.776;2023-06-10T05:19:22;6.82;;;4.72;;
45686;SDS011;31399;51.176;7.776;2023-06-10T05:21:48;5.55;;;4.13;;
45686;SDS011;31399;51.176;7.776;2023-06-10T05:24:15;8.13;;;4.55;;
45686;SDS011;31399;51.176;7.776;2023-06-10T05:26:42;6.95;;;4.47;;
45686;SDS011;31399;51.176;7.776;2023-06-10T05:29:08;8.05;;;4.22;;
45686;SDS011;31399;51.176;7.776;2023-06-10T05:31:35;6.60;;;4.70;;
45686;SDS011;31399;51.176;7.776;2023-06-10T05:34:02;5.18;;;4.30;;
45686;SDS011;31399;51.176;7.776;2023-06-10T05:36:29;6.20;;;4.47;;
45686;SDS011;31399;51.176;7.776;2023-06-10T05:38:55;5.35;;;4.20;;
45686;SDS011;31399;51.176;7.776;2023-06-10T05:41:22;5.40;;;4.10;;
45686;SDS011;31399;51.176;7.776;2023-06-10T05:43:49;5.72;;;4.32;;
45686;SDS011;31399;51.176;7.776;2023-06-10T05:46:15;10.25;;;4.90;;
45686;SDS011;31399;51.176;7.776;2023-06-10T05:48:42;7.40;;;4.47;;
45686;SDS011;31399;51.176;7.776;2023-06-10T05:51:08;5.05;;;4.32;;
45686;SDS011;31399;51.176;7.776;2023-06-10T05:53:36;7.53;;;4.55;;
45686;SDS011;31399;51.176;7.776;2023-06-10T05:56:03;4.55;;;4.05;;
45686;SDS011;31399;51.176;7.776;2023-06-10T05:58:30;5.95;;;4.05;;
45686;SDS011;31399;51.176;7.776;2023-06-10T06:00:56;5.50;;;4.30;;
45686;SDS011;31399;51.176;7.776;2023-06-10T06:03:23;8.93;;;4.10;;
45686;SDS011;31399;51.176;7.776;2023-06-10T06:05:50;5.70;;;4.40;;
45686;SDS011;31399;51.176;7.776;2023-06-10T06:08:16;4.30;;;3.90;;
45686;SDS011;31399;51.176;7.776;2023-06-10T06:10:45;13.43;;;4.45;;
45686;SDS011;31399;51.176;7.776;2023-06-10T06:13:12;6.30;;;4.97;;
45686;SDS011;31399;51.176;7.776;2023-06-10T06:15:38;4.72;;;3.33;;
45686;SDS011;31399;51.176;7.776;2023-06-10T06:18:05;6.32;;;4.10;;
45686;SDS011;31399;51.176;7.776;2023-06-10T06:20:32;6.38;;;4.68;;
45686;SDS011;31399;51.176;7.776;2023-06-10T06:22:58;8.07;;;4.18;;
45686;SDS011;31399;51.176;7.776;2023-06-10T06:25:25;8.10;;;4.60;;
45686;SDS011;31399;51.176;7.776;2023-06-10T06:27:51;8.20;;;5.07;;
45686;SDS011;31399;51.176;7.776;2023-06-10T06:30:18;4.72;;;3.97;;
45686;SDS011;31399;51.176;7.776;2023-06-10T06:35:52;6.00;;;4.07;;
45686;SDS011;31399;51.176;7.776;2023-06-10T06:38:19;4.30;;;3.90;;
45686;SDS011;31399;51.176;7.776;2023-06-10T06:40:47;5.43;;;4.50;;
45686;SDS011;31399;51.176;7.776;2023-06-10T06:47:01;4.70;;;3.92;;
45686;SDS011;31399;51.176;7.776;2023-06-10T06:49:28;8.15;;;4.07;;
45686;SDS011;31399;51.176;7.776;2023-06-10T06:51:55;10.88;;;4.45;;
45686;SDS011;31399;51.176;7.776;2023-06-10T06:58:16;5.10;;;3.92;;
45686;SDS011;31399;51.176;7.776;2023-06-10T07:04:24;5.63;;;4.20;;
45686;SDS011;31399;51.176;7.776;2023-06-10T07:06:51;4.95;;;4.28;;
45686;SDS011;31399;51.176;7.776;2023-06-10T07:09:18;6.50;;;3.97;;
45686;SDS011;31399;51.176;7.776;2023-06-10T07:11:44;10.20;;;4.85;;
45686;SDS011;31399;51.176;7.776;2023-06-10T07:14:11;5.82;;;4.00;;
45686;SDS011;31399;51.176;7.776;2023-06-10T07:16:37;7.68;;;4.50;;
45686;SDS011;31399;51.176;7.776;2023-06-10T07:19:04;7.00;;;4.00;;
45686;SDS011;31399;51.176;7.776;2023-06-10T07:21:31;5.28;;;3.88;;
45686;SDS011;31399;51.176;7.776;2023-06-10T07:23:59;6.32;;;4.38;;
45686;SDS011;31399;51.176;7.776;2023-06-10T07:26:26;8.00;;;4.20;;
45686;SDS011;31399;51.176;7.776;2023-06-10T07:28:52;7.75;;;4.10;;
45686;SDS011;31399;51.176;7.776;2023-06-10T07:31:19;5.93;;;4.13;;
45686;SDS011;31399;51.176;7.776;2023-06-10T07:33:46;5.20;;;4.00;;
45686;SDS011;31399;51.176;7.776;2023-06-10T07:36:13;5.85;;;4.10;;
45686;SDS011;31399;51.176;7.776;2023-06-10T07:38:39;10.77;;;4.57;;
45686;SDS011;31399;51.176;7.776;2023-06-10T07:41:08;6.85;;;4.07;;
45686;SDS011;31399;51.176;7.776;2023-06-10T07:43:35;8.18;;;4.47;;
45686;SDS011;31399;51.176;7.776;2023-06-10T07:46:02;5.55;;;4.40;;
45686;SDS011;31399;51.176;7.776;2023-06-10T07:48:29;7.72;;;4.70;;
45686;SDS011;31399;51.176;7.776;2023-06-10T07:50:56;7.65;;;4.63;;
45686;SDS011;31399;51.176;7.776;2023-06-10T07:53:22;5.43;;;4.78;;
45686;SDS011;31399;51.176;7.776;2023-06-10T07:55:49;5.97;;;4.30;;
45686;SDS011;31399;51.176;7.776;2023-06-10T07:58:17;5.50;;;4.43;;
45686;SDS011;31399;51.176;7.776;2023-06-10T08:00:44;4.93;;;4.45;;
45686;SDS011;31399;51.176;7.776;2023-06-10T08:03:11;6.90;;;4.82;;
45686;SDS011;31399;51.176;7.776;2023-06-10T08:05:39;6.35;;;4.63;;
45686;SDS011;31399;51.176;7.776;2023-06-10T08:08:05;5.78;;;4.35;;
45686;SDS011;31399;51.176;7.776;2023-06-10T08:10:32;5.28;;;4.00;;
45686;SDS011;31399;51.176;7.776;2023-06-10T08:12:59;7.85;;;5.05;;
45686;SDS011;31399;51.176;7.776;2023-06-10T08:15:26;4.75;;;3.95;;
45686;SDS011;31399;51.176;7.776;2023-06-10T08:17:52;7.70;;;4.82;;
45686;SDS011;31399;51.176;7.776;2023-06-10T08:20:19;7.22;;;4.60;;
45686;SDS011;31399;51.176;7.776;2023-06-10T08:22:46;6.03;;;4.60;;
45686;SDS011;31399;51.176;7.776;2023-06-10T08:25:12;6.05;;;4.70;;
45686;SDS011;31399;51.176;7.776;2023-06-10T08:27:39;6.28;;;4.38;;
45686;SDS011;31399;51.176;7.776;2023-06-10T08:30:06;6.10;;;4.53;;
45686;SDS011;31399;51.176;7.776;2023-06-10T08:32:33;5.78;;;4.70;;
45686;SDS011;31399;51.176;7.776;2023-06-10T08:34:59;7.32;;;4.78;;
45686;SDS011;31399;51.176;7.776;2023-06-10T08:37:26;5.50;;;4.32;;
45686;SDS011;31399;51.176;7.776;2023-06-10T08:39:52;6.00;;;4.95;;
45686;SDS011;31399;51.176;7.776;2023-06-10T08:42:23;6.43;;;4.55;;
45686;SDS011;31399;51.176;7.776;2023-06-10T08:44:55;6.32;;;4.75;;
45686;SDS011;31399;51.176;7.776;2023-06-10T08:47:23;5.18;;;4.25;;
45686;SDS011;31399;51.176;7.776;2023-06-10T08:49:51;5.63;;;4.20;;
45686;SDS011;31399;51.176;7.776;2023-06-10T08:52:23;4.95;;;4.45;;
45686;SDS011;31399;51.176;7.776;2023-06-10T08:54:58;12.63;;;4.28;;
45686;SDS011;31399;51.176;7.776;2023-06-10T08:57:26;5.25;;;4.18;;
45686;SDS011;31399;51.176;7.776;2023-06-10T08:59:53;6.72;;;4.80;;
45686;SDS011;31399;51.176;7.776;2023-06-10T09:02:21;6.63;;;4.88;;
45686;SDS011;31399;51.176;7.776;2023-06-10T09:04:47;6.28;;;4.63;;
45686;SDS011;31399;51.176;7.776;2023-06-10T09:07:15;6.55;;;4.63;;
45686;SDS011;31399;51.176;7.776;2023-06-10T09:09:44;8.25;;;4.43;;
45686;SDS011;31399;51.176;7.776;2023-06-10T09:12:14;5.47;;;4.53;;
45686;SDS011;31399;51.176;7.776;2023-06-10T09:14:41;10.38;;;4.53;;
45686;SDS011;31399;51.176;7.776;2023-06-10T09:17:08;6.43;;;4.53;;
45686;SDS011;31399;51.176;7.776;2023-06-10T09:19:35;8.75;;;4.53;;
45686;SDS011;31399;51.176;7.776;2023-06-10T09:22:03;5.43;;;4.43;;
45686;SDS011;31399;51.176;7.776;2023-06-10T09:24:30;6.50;;;4.70;;
45686;SDS011;31399;51.176;7.776;2023-06-10T09:27:03;7.18;;;4.60;;
45686;SDS011;31399;51.176;7.776;2023-06-10T09:29:45;7.78;;;4.43;;
45686;SDS011;31399;51.176;7.776;2023-06-10T09:32:18;6.57;;;4.57;;
45686;SDS011;31399;51.176;7.776;2023-06-10T09:34:46;5.40;;;4.28;;
45686;SDS011;31399;51.176;7.776;2023-06-10T09:37:14;5.80;;;4.43;;
45686;SDS011;31399;51.176;7.776;2023-06-10T09:40:00;7.43;;;5.05;;
45686;SDS011;31399;51.176;7.776;2023-06-10T09:42:34;5.88;;;4.53;;
45686;SDS011;31399;51.176;7.776;2023-06-10T09:45:02;6.63;;;5.28;;
45686;SDS011;31399;51.176;7.776;2023-06-10T09:47:30;5.57;;;4.53;;
45686;SDS011;31399;51.176;7.776;2023-06-10T09:49:56;6.00;;;4.47;;
45686;SDS011;31399;51.176;7.776;2023-06-10T09:52:23;5.28;;;4.72;;
45686;SDS011;31399;51.176;7.776;2023-06-10T09:54:51;4.72;;;4.13;;
45686;SDS011;31399;51.176;7.776;2023-06-10T09:57:21;7.38;;;4.05;;
45686;SDS011;31399;51.176;7.776;2023-06-10T09:59:52;4.75;;;4.35;;
45686;SDS011;31399;51.176;7.776;2023-06-10T10:02:19;6.75;;;4.63;;
45686;SDS011;31399;51.176;7.776;2023-06-10T10:04:46;6.78;;;4.82;;
45686;SDS011;31399;51.176;7.776;2023-06-10T10:07:13;9.27;;;5.38;;
45686;SDS011;31399;51.176;7.776;2023-06-10T10:09:41;6.72;;;4.53;;
45686;SDS011;31399;51.176;7.776;2023-06-10T10:14:40;7.18;;;5.15;;
45686;SDS011;31399;51.176;7.776;2023-06-10T10:17:14;5.10;;;4.60;;
45686;SDS011;31399;51.176;7.776;2023-06-10T10:19:46;5.18;;;4.68;;
45686;SDS011;31399;51.176;7.776;2023-06-10T10:22:16;6.07;;;5.07;;
45686;SDS011;31399;51.176;7.776;2023-06-10T10:25:05;8.43;;;4.72;;
45686;SDS011;31399;51.176;7.776;2023-06-10T10:27:47;5.95;;;5.13;;
45686;SDS011;31399;51.176;7.776;2023-06-10T10:30:15;9.73;;;4.70;;
45686;SDS011;31399;51.176;7.776;2023-06-10T10:32:46;8.38;;;4.70;;
45686;SDS011;31399;51.176;7.776;2023-06-10T10:35:25;5.03;;;4.40;;
45686;SDS011;31399;51.176;7.776;2023-06-10T10:37:52;8.50;;;4.18;;
45686;SDS011;31399;51.176;7.776;2023-06-10T10:40:20;7.07;;;4.20;;
45686;SDS011;31399;51.176;7.776;2023-06-10T10:42:51;8.13;;;4.57;;
45686;SDS011;31399;51.176;7.776;2023-06-10T10:45:18;4.10;;;3.70;;
45686;SDS011;31399;51.176;7.776;2023-06-10T10:47:46;5.32;;;4.15;;
45686;SDS011;31399;51.176;7.776;2023-06-10T10:50:16;6.03;;;4.30;;
45686;SDS011;31399;51.176;7.776;2023-06-10T10:52:55;7.32;;;4.40;;
45686;SDS011;31399;51.176;7.776;2023-06-10T10:55:23;5.13;;;4.05;;
45686;SDS011;31399;51.176;7.776;2023-06-10T10:57:54;6.80;;;4.40;;
45686;SDS011;31399;51.176;7.776;2023-06-10T11:01:23;6.93;;;3.92;;
45686;SDS011;31399;51.176;7.776;2023-06-10T11:07:37;6.53;;;3.55;;
45686;SDS011;31399;51.176;7.776;2023-06-10T11:23:09;5.43;;;3.50;;
45686;SDS011;31399;51.176;7.776;2023-06-10T11:25:39;3.53;;;3.00;;
45686;SDS011;31399;51.176;7.776;2023-06-10T11:31:39;5.75;;;3.42;;
45686;SDS011;31399;51.176;7.776;2023-06-10T11:34:07;4.18;;;3.10;;
45686;SDS011;31399;51.176;7.776;2023-06-10T11:36:37;5.38;;;3.30;;
45686;SDS011;31399;51.176;7.776;2023-06-10T11:39:06;5.38;;;3.83;;
45686;SDS011;31399;51.176;7.776;2023-06-10T11:41:34;5.82;;;3.60;;
45686;SDS011;31399;51.176;7.776;2023-06-10T11:44:02;7.75;;;3.28;;
45686;SDS011;31399;51.176;7.776;2023-06-10T11:46:30;3.90;;;3.50;;
45686;SDS011;31399;51.176;7.776;2023-06-10T11:48:57;4.65;;;3.40;;
45686;SDS011;31399;51.176;7.776;2023-06-10T11:51:26;3.50;;;3.20;;
45686;SDS011;31399;51.176;7.776;2023-06-10T11:53:53;3.75;;;3.45;;
45686;SDS011;31399;51.176;7.776;2023-06-10T11:56:21;3.92;;;3.42;;
45686;SDS011;31399;51.176;7.776;2023-06-10T11:58:58;3.05;;;2.75;;
45686;SDS011;31399;51.176;7.776;2023-06-10T12:01:34;8.85;;;2.97;;
45686;SDS011;31399;51.176;7.776;2023-06-10T12:04:10;3.75;;;3.45;;
45686;SDS011;31399;51.176;7.776;2023-06-10T12:09:04;4.30;;;3.90;;
45686;SDS011;31399;51.176;7.776;2023-06-10T12:11:49;7.18;;;3.42;;
45686;SDS011;31399;51.176;7.776;2023-06-10T12:20:03;6.25;;;3.40;;
45686;SDS011;31399;51.176;7.776;2023-06-10T12:22:42;4.65;;;3.38;;
45686;SDS011;31399;51.176;7.776;2023-06-10T12:25:09;6.97;;;3.42;;
45686;SDS011;31399;51.176;7.776;2023-06-10T12:27:38;3.20;;;3.00;;
45686;SDS011;31399;51.176;7.776;2023-06-10T12:30:07;4.17;;;3.27;;
45686;SDS011;31399;51.176;7.776;2023-06-10T12:32:43;3.13;;;2.90;;
45686;SDS011;31399;51.176;7.776;2023-06-10T12:35:12;3.30;;;3.00;;
45686;SDS011;31399;51.176;7.776;2023-06-10T12:37:40;4.15;;;2.97;;
45686;SDS011;31399;51.176;7.776;2023-06-10T12:40:09;4.68;;;3.28;;
45686;SDS011;31399;51.176;7.776;2023-06-10T12:42:36;5.30;;;3.55;;
45686;SDS011;31399;51.176;7.776;2023-06-10T12:45:04;5.85;;;3.10;;
45686;SDS011;31399;51.176;7.776;2023-06-10T12:47:34;5.65;;;3.25;;
45686;SDS011;31399;51.176;7.776;2023-06-10T12:50:05;3.90;;;3.42;;
45686;SDS011;31399;51.176;7.776;2023-06-10T12:52:32;6.82;;;3.47;;
45686;SDS011;31399;51.176;7.776;2023-06-10T12:55:00;5.53;;;3.33;;
45686;SDS011;31399;51.176;7.776;2023-06-10T12:57:27;4.13;;;3.83;;
45686;SDS011;31399;51.176;7.776;2023-06-10T12:59:54;6.30;;;3.50;;
45686;SDS011;31399;51.176;7.776;2023-06-10T13:02:23;6.72;;;3.30;;
45686;SDS011;31399;51.176;7.776;2023-06-10T13:04:50;4.93;;;3.53;;
45686;SDS011;31399;51.176;7.776;2023-06-10T13:07:17;5.78;;;3.35;;
45686;SDS011;31399;51.176;7.776;2023-06-10T13:09:44;3.33;;;3.10;;
45686;SDS011;31399;51.176;7.776;2023-06-10T13:12:11;4.25;;;3.58;;
45686;SDS011;31399;51.176;7.776;2023-06-10T13:14:42;3.63;;;3.33;;
45686;SDS011;31399;51.176;7.776;2023-06-10T13:17:08;5.50;;;2.95;;
45686;SDS011;31399;51.176;7.776;2023-06-10T13:19:35;7.60;;;3.40;;
45686;SDS011;31399;51.176;7.776;2023-06-10T13:22:03;4.22;;;3.63;;
45686;SDS011;31399;51.176;7.776;2023-06-10T13:24:29;5.47;;;3.65;;
45686;SDS011;31399;51.176;7.776;2023-06-10T13:26:56;4.80;;;3.50;;
45686;SDS011;31399;51.176;7.776;2023-06-10T13:29:23;3.95;;;3.58;;
45686;SDS011;31399;51.176;7.776;2023-06-10T13:31:50;6.60;;;3.60;;
45686;SDS011;31399;51.176;7.776;2023-06-10T13:34:17;4.47;;;3.50;;
45686;SDS011;31399;51.176;7.776;2023-06-10T13:36:43;7.22;;;3.20;;
45686;SDS011;31399;51.176;7.776;2023-06-10T13:39:10;6.47;;;3.78;;
45686;SDS011;31399;51.176;7.776;2023-06-10T13:41:38;5.82;;;3.40;;
45686;SDS011;31399;51.176;7.776;2023-06-10T13:44:05;4.63;;;3.60;;
45686;SDS011;31399;51.176;7.776;2023-06-10T13:46:32;5.15;;;3.92;;
45686;SDS011;31399;51.176;7.776;2023-06-10T13:48:59;5.13;;;3.60;;
45686;SDS011;31399;51.176;7.776;2023-06-10T13:51:26;4.97;;;3.40;;
45686;SDS011;31399;51.176;7.776;2023-06-10T13:53:52;3.67;;;3.15;;
45686;SDS011;31399;51.176;7.776;2023-06-10T13:56:19;4.88;;;3.25;;
45686;SDS011;31399;51.176;7.776;2023-06-10T13:58:45;5.32;;;3.20;;
45686;SDS011;31399;51.176;7.776;2023-06-10T14:01:12;5.13;;;3.67;;
45686;SDS011;31399;51.176;7.776;2023-06-10T14:03:39;6.38;;;3.05;;
45686;SDS011;31399;51.176;7.776;2023-06-10T14:06:05;8.35;;;3.83;;
45686;SDS011;31399;51.176;7.776;2023-06-10T14:08:32;4.45;;;3.42;;
45686;SDS011;31399;51.176;7.776;2023-06-10T14:10:59;3.88;;;3.40;;
45686;SDS011;31399;51.176;7.776;2023-06-10T14:13:25;4.07;;;3.47;;
45686;SDS011;31399;51.176;7.776;2023-06-10T14:15:52;7.63;;;3.67;;
45686;SDS011;31399;51.176;7.776;2023-06-10T14:18:19;4.43;;;3.58;;
45686;SDS011;31399;51.176;7.776;2023-06-10T14:20:45;5.53;;;3.25;;
45686;SDS011;31399;51.176;7.776;2023-06-10T14:23:15;3.50;;;2.80;;
45686;SDS011;31399;51.176;7.776;2023-06-10T14:25:42;3.53;;;2.95;;
45686;SDS011;31399;51.176;7.776;2023-06-10T14:28:08;3.78;;;3.10;;
45686;SDS011;31399;51.176;7.776;2023-06-10T14:30:35;4.65;;;3.53;;
45686;SDS011;31399;51.176;7.776;2023-06-10T14:33:02;5.18;;;3.20;;
45686;SDS011;31399;51.176;7.776;2023-06-10T14:35:28;4.97;;;3.10;;
45686;SDS011;31399;51.176;7.776;2023-06-10T14:37:55;5.38;;;3.45;;
45686;SDS011;31399;51.176;7.776;2023-06-10T14:40:22;4.07;;;3.50;;
45686;SDS011;31399;51.176;7.776;2023-06-10T14:42:50;4.72;;;3.20;;
45686;SDS011;31399;51.176;7.776;2023-06-10T14:45:23;6.57;;;3.40;;
45686;SDS011;31399;51.176;7.776;2023-06-10T14:47:51;6.38;;;3.40;;
45686;SDS011;31399;51.176;7.776;2023-06-10T14:50:18;6.57;;;3.47;;
45686;SDS011;31399;51.176;7.776;2023-06-10T14:52:44;3.88;;;3.10;;
45686;SDS011;31399;51.176;7.776;2023-06-10T14:55:11;6.40;;;4.75;;
45686;SDS011;31399;51.176;7.776;2023-06-10T14:57:38;5.45;;;3.10;;
45686;SDS011;31399;51.176;7.776;2023-06-10T15:00:05;4.93;;;3.30;;
45686;SDS011;31399;51.176;7.776;2023-06-10T15:02:34;5.60;;;2.95;;
45686;SDS011;31399;51.176;7.776;2023-06-10T15:05:00;5.80;;;3.20;;
45686;SDS011;31399;51.176;7.776;2023-06-10T15:07:27;4.03;;;2.88;;
45686;SDS011;31399;51.176;7.776;2023-06-10T15:09:54;5.68;;;3.00;;
45686;SDS011;31399;51.176;7.776;2023-06-10T15:12:20;4.82;;;3.13;;
45686;SDS011;31399;51.176;7.776;2023-06-10T15:14:47;5.03;;;3.08;;
45686;SDS011;31399;51.176;7.776;2023-06-10T15:17:13;4.13;;;3.28;;
45686;SDS011;31399;51.176;7.776;2023-06-10T15:19:40;5.97;;;3.58;;
45686;SDS011;31399;51.176;7.776;2023-06-10T15:22:07;5.13;;;3.20;;
45686;SDS011;31399;51.176;7.776;2023-06-10T15:24:33;4.88;;;3.50;;
45686;SDS011;31399;51.176;7.776;2023-06-10T15:27:00;4.03;;;3.20;;
45686;SDS011;31399;51.176;7.776;2023-06-10T15:29:27;5.45;;;3.38;;
45686;SDS011;31399;51.176;7.776;2023-06-10T15:31:53;5.30;;;3.05;;
45686;SDS011;31399;51.176;7.776;2023-06-10T15:34:20;10.60;;;3.72;;
45686;SDS011;31399;51.176;7.776;2023-06-10T15:36:47;5.43;;;3.28;;
45686;SDS011;31399;51.176;7.776;2023-06-10T15:39:14;4.07;;;3.15;;
45686;SDS011;31399;51.176;7.776;2023-06-10T15:41:40;4.95;;;3.30;;
45686;SDS011;31399;51.176;7.776;2023-06-10T15:44:07;4.25;;;3.40;;